createdAt,value
2019-03-04T00:00:55.059Z,4.90
2019-03-04T00:03:24.297Z,6.58
2019-03-04T00:05:53.540Z,6.65
2019-03-04T00:08:22.754Z,5.75
2019-03-04T00:10:51.958Z,4.97
2019-03-04T00:13:21.168Z,4.67
2019-03-04T00:15:50.374Z,5.67
2019-03-04T00:18:19.675Z,4.30
2019-03-04T00:20:48.896Z,6.50
2019-03-04T00:23:18.097Z,3.62
2019-03-04T00:25:47.285Z,5.47
2019-03-04T00:28:16.504Z,4.80
2019-03-04T00:30:45.709Z,5.40
2019-03-04T00:33:14.972Z,5.67
2019-03-04T00:35:44.283Z,6.37
2019-03-04T00:38:13.532Z,5.87
2019-03-04T00:40:42.757Z,5.17
2019-03-04T00:43:11.969Z,5.53
2019-03-04T00:45:41.215Z,4.85
2019-03-04T00:48:10.425Z,6.37
2019-03-04T00:50:39.621Z,5.80
2019-03-04T00:53:08.849Z,7.85
2019-03-04T00:55:38.014Z,3.50
2019-03-04T00:58:07.227Z,3.80
2019-03-04T01:00:36.543Z,6.35
2019-03-04T01:03:06.479Z,4.50
2019-03-04T01:05:35.644Z,7.58
2019-03-04T01:08:04.837Z,4.87
2019-03-04T01:10:34.040Z,6.62
2019-03-04T01:13:03.229Z,5.05
2019-03-04T01:15:32.420Z,7.67
2019-03-04T01:18:01.616Z,5.50
2019-03-04T01:20:30.824Z,5.47
2019-03-04T01:23:00.035Z,6.55
2019-03-04T01:25:29.356Z,6.08
2019-03-04T01:27:58.550Z,4.72
2019-03-04T01:30:28.906Z,5.05
2019-03-04T01:32:58.098Z,5.60
2019-03-04T01:35:27.408Z,6.05
2019-03-04T01:37:56.579Z,5.05
2019-03-04T01:40:25.786Z,5.95
2019-03-04T01:42:54.995Z,6.17
2019-03-04T01:45:24.185Z,4.17
2019-03-04T01:47:53.374Z,8.15
2019-03-04T01:50:22.570Z,7.90
2019-03-04T01:52:51.777Z,6.55
2019-03-04T01:55:21.033Z,5.72
2019-03-04T01:57:50.223Z,4.55
2019-03-04T02:00:20.107Z,6.28
2019-03-04T02:02:51.940Z,7.03
2019-03-04T02:05:22.043Z,6.08
2019-03-04T02:07:51.245Z,4.95
2019-03-04T02:10:20.671Z,7.55
2019-03-04T02:12:50.380Z,5.83
2019-03-04T02:15:19.930Z,6.85
2019-03-04T02:17:49.175Z,7.70
2019-03-04T02:20:19.032Z,5.17
2019-03-04T02:22:48.321Z,4.10
2019-03-04T02:25:18.601Z,6.40
2019-03-04T02:27:50.857Z,4.33
2019-03-04T02:30:25.598Z,5.87
2019-03-04T02:35:23.171Z,5.47
2019-03-04T02:37:52.361Z,6.87
2019-03-04T02:40:21.564Z,5.87
2019-03-04T02:42:50.767Z,6.08
2019-03-04T02:45:20.063Z,4.92
2019-03-04T02:47:49.270Z,8.45
2019-03-04T02:50:18.458Z,7.00
2019-03-04T02:52:47.677Z,6.37
2019-03-04T02:55:17.105Z,7.78
2019-03-04T02:57:46.525Z,6.40
2019-03-04T03:00:16.781Z,5.75
2019-03-04T03:02:46.043Z,8.70
2019-03-04T03:05:15.280Z,8.33
2019-03-04T03:07:44.571Z,5.83
2019-03-04T03:10:14.037Z,9.03
2019-03-04T03:12:43.202Z,7.90
2019-03-04T03:15:12.762Z,8.75
2019-03-04T03:17:42.129Z,9.88
2019-03-04T03:20:11.721Z,7.95
2019-03-04T03:22:40.939Z,7.22
2019-03-04T03:25:10.205Z,7.03
2019-03-04T03:27:39.409Z,7.05
2019-03-04T03:30:10.128Z,5.40
2019-03-04T03:32:39.439Z,6.78
2019-03-04T03:35:09.317Z,6.78
2019-03-04T03:37:38.518Z,7.92
2019-03-04T03:40:09.693Z,6.87
2019-03-04T03:42:39.027Z,8.08
2019-03-04T03:45:08.536Z,4.55
2019-03-04T03:47:37.782Z,4.90
2019-03-04T03:50:08.104Z,6.15
2019-03-04T03:52:37.327Z,5.97
2019-03-04T03:55:07.932Z,6.62
2019-03-04T03:57:37.186Z,5.55
2019-03-04T04:00:10.427Z,7.75
2019-03-04T04:02:39.656Z,6.78
2019-03-04T04:05:08.973Z,4.80
2019-03-04T04:07:38.176Z,4.87
2019-03-04T04:10:09.185Z,5.85
2019-03-04T04:12:38.414Z,5.47
2019-03-04T04:15:07.927Z,7.55
2019-03-04T04:17:37.107Z,3.62
2019-03-04T04:20:06.881Z,4.78
2019-03-04T04:22:36.099Z,6.75
2019-03-04T04:25:05.434Z,6.45
2019-03-04T04:27:34.617Z,5.03
2019-03-04T04:30:04.058Z,7.28
2019-03-04T04:32:33.304Z,3.00
2019-03-04T04:35:02.523Z,4.35
2019-03-04T04:37:31.728Z,6.00
2019-03-04T04:40:00.961Z,4.85
2019-03-04T04:42:30.164Z,5.22
2019-03-04T04:44:59.346Z,4.97
2019-03-04T04:47:28.537Z,3.50
2019-03-04T04:49:57.775Z,2.95
2019-03-04T04:52:26.996Z,3.25
2019-03-04T04:54:56.204Z,5.53
2019-03-04T04:57:25.385Z,7.28
2019-03-04T04:59:54.611Z,2.87
2019-03-04T05:02:23.807Z,4.58
2019-03-04T05:04:52.987Z,3.20
2019-03-04T05:07:22.204Z,3.58
2019-03-04T05:09:51.393Z,6.05
2019-03-04T05:12:20.603Z,3.27
2019-03-04T05:14:49.790Z,3.02
2019-03-04T05:17:18.978Z,4.28
2019-03-04T05:19:48.178Z,4.80
2019-03-04T05:22:17.358Z,3.90
2019-03-04T05:24:46.572Z,2.47
2019-03-04T05:27:15.766Z,4.83
2019-03-04T05:29:45.995Z,4.03
2019-03-04T05:32:15.246Z,2.95
2019-03-04T05:34:44.482Z,3.02
2019-03-04T05:37:34.058Z,3.77
2019-03-04T05:40:03.292Z,3.22
2019-03-04T05:42:32.478Z,2.17
2019-03-04T05:45:01.679Z,5.08
2019-03-04T05:47:30.844Z,3.98
2019-03-04T05:50:00.298Z,3.65
2019-03-04T05:52:29.515Z,3.47
2019-03-04T05:54:58.720Z,4.53
2019-03-04T05:57:27.914Z,2.10
2019-03-04T05:59:57.115Z,4.20
2019-03-04T06:02:26.329Z,4.70
2019-03-04T06:04:55.572Z,4.67
2019-03-04T06:07:58.637Z,3.83
2019-03-04T06:10:29.336Z,3.90
2019-03-04T06:12:59.032Z,2.62
2019-03-04T06:15:28.354Z,3.98
2019-03-04T06:17:57.548Z,3.67
2019-03-04T06:20:26.749Z,3.12
2019-03-04T06:22:55.945Z,2.92
2019-03-04T06:25:26.966Z,3.58
2019-03-04T06:27:56.142Z,3.12
2019-03-04T06:30:25.939Z,3.22
2019-03-04T06:32:55.137Z,3.25
2019-03-04T06:35:24.353Z,3.77
2019-03-04T06:37:53.531Z,2.92
2019-03-04T06:40:25.587Z,3.90
2019-03-04T06:42:54.790Z,4.10
2019-03-04T06:45:24.083Z,3.08
2019-03-04T06:47:53.269Z,3.10
2019-03-04T06:50:47.212Z,2.65
2019-03-04T06:53:50.123Z,4.62
2019-03-04T06:56:46.809Z,2.83
2019-03-04T06:59:29.749Z,4.45
2019-03-04T07:02:05.177Z,3.30
2019-03-04T07:04:52.642Z,3.90
2019-03-04T07:07:21.839Z,4.70
2019-03-04T07:09:51.032Z,3.12
2019-03-04T07:12:20.228Z,3.17
2019-03-04T07:14:49.432Z,2.00
2019-03-04T07:17:18.640Z,3.60
2019-03-04T07:19:50.070Z,2.50
2019-03-04T07:22:19.246Z,2.62
2019-03-04T07:24:48.462Z,2.90
2019-03-04T07:27:17.638Z,2.92
2019-03-04T07:29:46.856Z,4.47
2019-03-04T07:32:16.034Z,3.42
2019-03-04T07:34:48.380Z,2.98
2019-03-04T07:37:17.814Z,5.30
2019-03-04T07:39:47.040Z,3.35
2019-03-04T07:42:16.264Z,2.08
2019-03-04T07:44:45.695Z,2.90
2019-03-04T07:47:14.887Z,5.12
2019-03-04T07:49:49.407Z,4.00
2019-03-04T07:52:18.625Z,3.02
2019-03-04T07:54:47.840Z,3.55
2019-03-04T07:57:17.028Z,3.33
2019-03-04T07:59:46.253Z,2.60
2019-03-04T08:02:15.465Z,2.35
2019-03-04T08:04:44.681Z,1.42
2019-03-04T08:07:51.709Z,1.87
2019-03-04T08:11:03.504Z,1.75
2019-03-04T08:13:45.477Z,2.60
2019-03-04T08:16:14.691Z,1.45
2019-03-04T08:18:43.881Z,1.20
2019-03-04T08:21:13.109Z,1.80
2019-03-04T08:23:42.326Z,1.05
2019-03-04T08:26:11.637Z,3.00
2019-03-04T08:28:40.825Z,2.20
2019-03-04T08:31:10.107Z,1.55
2019-03-04T08:33:39.319Z,1.50
2019-03-04T08:36:08.497Z,1.75
2019-03-04T08:38:37.681Z,1.80
2019-03-04T08:41:06.983Z,2.08
2019-03-04T08:43:36.190Z,2.55
2019-03-04T08:46:05.502Z,4.80
2019-03-04T08:48:34.708Z,1.95
2019-03-04T08:51:03.881Z,2.62
2019-03-04T08:53:33.178Z,1.95
2019-03-04T08:56:02.361Z,1.70
2019-03-04T08:58:31.546Z,1.67
2019-03-04T09:01:00.750Z,3.62
2019-03-04T09:03:29.950Z,2.50
2019-03-04T09:05:59.152Z,3.92
2019-03-04T09:08:28.375Z,3.55
2019-03-04T09:10:57.584Z,2.15
2019-03-04T09:13:26.778Z,2.45
2019-03-04T09:15:56.013Z,4.12
2019-03-04T09:18:25.213Z,3.85
2019-03-04T09:20:54.407Z,2.87
2019-03-04T09:23:23.591Z,1.10
2019-03-04T09:26:00.283Z,2.87
2019-03-04T09:28:29.457Z,3.80
2019-03-04T09:30:58.660Z,3.55
2019-03-04T09:33:27.890Z,2.45
2019-03-04T09:35:57.099Z,2.27
2019-03-04T09:38:26.307Z,4.05
2019-03-04T09:40:55.503Z,1.82
2019-03-04T09:43:24.777Z,2.60
2019-03-04T09:45:53.941Z,1.82
2019-03-04T09:48:23.158Z,3.50
2019-03-04T09:50:52.319Z,1.72
2019-03-04T09:53:21.505Z,3.35
2019-03-04T09:55:50.764Z,2.33
2019-03-04T09:58:19.948Z,1.98
2019-03-04T10:01:22.973Z,2.58
2019-03-04T10:04:27.774Z,2.42
2019-03-04T10:07:27.825Z,3.33
2019-03-04T10:11:01.949Z,3.95
2019-03-04T10:14:33.070Z,3.10
2019-03-04T10:18:04.170Z,2.25
2019-03-04T10:21:22.996Z,3.15
2019-03-04T10:24:21.693Z,2.17
2019-03-04T10:27:36.270Z,5.17
2019-03-04T10:30:16.508Z,4.72
2019-03-04T10:33:31.719Z,2.58
2019-03-04T10:36:32.022Z,4.28
2019-03-04T10:39:36.243Z,6.92
2019-03-04T10:42:49.796Z,3.80
2019-03-04T10:45:57.117Z,5.15
2019-03-04T10:48:26.304Z,5.70
2019-03-04T10:50:55.639Z,3.98
2019-03-04T10:53:24.839Z,5.17
2019-03-04T10:55:54.032Z,3.75
2019-03-04T10:58:23.249Z,4.78
2019-03-04T11:00:52.451Z,7.22
2019-03-04T11:03:21.759Z,3.33
2019-03-04T11:05:50.976Z,3.55
2019-03-04T11:08:20.212Z,6.33
2019-03-04T11:10:49.804Z,5.60
2019-03-04T11:13:19.008Z,4.40
2019-03-04T11:15:48.495Z,3.85
2019-03-04T11:18:17.738Z,4.47
2019-03-04T11:20:46.916Z,3.15
2019-03-04T11:23:16.120Z,3.05
2019-03-04T11:25:45.376Z,3.05
2019-03-04T11:28:14.575Z,4.10
2019-03-04T11:30:43.807Z,1.95
2019-03-04T11:33:13.014Z,2.92
2019-03-04T11:35:42.232Z,3.80
2019-03-04T11:38:34.490Z,4.40
2019-03-04T11:41:04.206Z,4.42
2019-03-04T11:43:33.396Z,6.33
2019-03-04T11:46:02.694Z,5.03
2019-03-04T11:48:31.915Z,3.12
2019-03-04T11:51:01.099Z,3.45
2019-03-04T11:53:30.301Z,7.80
2019-03-04T11:55:59.892Z,4.25
2019-03-04T11:58:29.170Z,4.78
2019-03-04T12:01:03.648Z,3.87
2019-03-04T12:03:32.891Z,5.67
2019-03-04T12:06:02.084Z,2.95
2019-03-04T12:08:31.324Z,5.05
2019-03-04T12:11:00.571Z,5.87
2019-03-04T12:13:29.791Z,3.22
2019-03-04T12:15:59.049Z,3.92
2019-03-04T12:18:28.245Z,6.05
2019-03-04T12:20:57.471Z,6.33
2019-03-04T12:23:26.681Z,5.12
2019-03-04T12:25:55.886Z,4.78
2019-03-04T12:28:25.130Z,4.00
2019-03-04T12:30:54.360Z,3.42
2019-03-04T12:33:23.572Z,7.30
2019-03-04T12:35:52.767Z,5.08
2019-03-04T12:38:22.010Z,4.75
2019-03-04T12:40:51.198Z,6.45
2019-03-04T12:43:20.438Z,3.65
2019-03-04T12:45:49.634Z,2.95
2019-03-04T12:48:18.894Z,4.65
2019-03-04T12:50:48.083Z,5.10
2019-03-04T12:53:17.280Z,5.83
2019-03-04T12:55:47.038Z,4.53
2019-03-04T12:58:16.283Z,5.72
2019-03-04T13:00:45.637Z,4.28
2019-03-04T13:03:22.847Z,4.70
2019-03-04T13:05:52.129Z,1.70
2019-03-04T13:08:21.337Z,1.07
2019-03-04T13:10:50.567Z,1.37
2019-03-04T13:13:19.785Z,1.17
2019-03-04T13:15:50.746Z,0.47
2019-03-04T13:18:19.954Z,0.40
2019-03-04T13:20:49.171Z,1.72
2019-03-04T13:23:18.387Z,0.55
2019-03-04T13:25:47.578Z,0.90
2019-03-04T13:28:16.774Z,1.40
2019-03-04T13:30:46.049Z,0.40
2019-03-04T13:33:15.476Z,1.47
2019-03-04T13:35:44.786Z,0.62
2019-03-04T13:38:13.981Z,0.50
2019-03-04T13:40:43.189Z,0.50
2019-03-04T13:43:12.397Z,1.32
2019-03-04T13:45:41.663Z,1.22
2019-03-04T13:48:10.947Z,1.45
2019-03-04T13:50:40.142Z,0.70
2019-03-04T13:53:09.341Z,1.32
2019-03-04T13:55:38.562Z,1.65
2019-03-04T13:58:07.907Z,0.75
2019-03-04T14:00:37.505Z,1.55
2019-03-04T14:03:06.790Z,1.00
2019-03-04T14:05:35.963Z,2.27
2019-03-04T14:08:05.358Z,1.90
2019-03-04T14:10:35.992Z,1.20
2019-03-04T14:13:05.240Z,1.10
2019-03-04T14:15:36.552Z,1.70
2019-03-04T14:18:05.956Z,2.08
2019-03-04T14:20:35.283Z,2.47
2019-03-04T14:23:04.889Z,2.30
2019-03-04T14:25:34.262Z,2.80
2019-03-04T14:28:03.657Z,2.22
2019-03-04T14:30:32.877Z,2.77
2019-03-04T14:33:02.105Z,2.98
2019-03-04T14:35:31.291Z,2.02
2019-03-04T14:38:00.523Z,1.62
2019-03-04T14:40:29.790Z,3.05
2019-03-04T14:42:59.077Z,3.05
2019-03-04T14:45:28.616Z,2.10
2019-03-04T14:47:58.007Z,1.90
2019-03-04T14:50:28.548Z,4.30
2019-03-04T14:52:57.925Z,2.65
2019-03-04T14:55:27.168Z,2.90
2019-03-04T14:57:56.389Z,3.92
2019-03-04T15:00:29.855Z,2.60
2019-03-04T15:02:59.166Z,2.22
2019-03-04T15:05:28.488Z,2.55
2019-03-04T15:07:57.923Z,3.52
2019-03-04T15:10:28.258Z,4.37
2019-03-04T15:12:57.494Z,2.35
2019-03-04T15:15:26.862Z,3.67
2019-03-04T15:17:56.170Z,2.90
2019-03-04T15:20:25.972Z,4.97
2019-03-04T15:22:55.604Z,5.33
2019-03-04T15:25:30.309Z,4.92
2019-03-04T15:30:42.076Z,4.53
2019-03-04T15:33:17.926Z,4.05
2019-03-04T15:35:42.450Z,5.45
2019-03-04T15:38:11.861Z,9.23
2019-03-04T15:40:41.285Z,7.05
2019-03-04T15:43:10.564Z,4.53
2019-03-04T15:45:43.430Z,6.03
2019-03-04T15:48:13.242Z,4.72
2019-03-04T15:50:42.526Z,5.25
2019-03-04T15:53:12.149Z,3.65
2019-03-04T15:55:41.489Z,5.80
2019-03-04T15:58:10.785Z,8.45
2019-03-04T16:00:40.222Z,4.72
2019-03-04T16:03:09.559Z,7.08
2019-03-04T16:05:39.616Z,6.70
2019-03-04T16:08:08.947Z,7.03
2019-03-04T16:10:38.379Z,6.20
2019-03-04T16:13:08.006Z,9.55
2019-03-04T16:15:39.103Z,9.30
2019-03-04T16:18:08.325Z,8.13
2019-03-04T16:20:37.562Z,6.00
2019-03-04T16:23:07.034Z,6.75
2019-03-04T16:25:36.269Z,7.67
2019-03-04T16:28:17.710Z,9.00
2019-03-04T16:30:49.211Z,6.33
2019-03-04T16:33:18.654Z,5.08
2019-03-04T16:35:47.912Z,9.20
2019-03-04T16:38:17.150Z,10.10
2019-03-04T16:40:46.368Z,6.10
2019-03-04T16:43:15.585Z,10.28
2019-03-04T16:45:44.950Z,10.85
2019-03-04T16:48:14.376Z,8.13
2019-03-04T16:50:43.878Z,8.53
2019-03-04T16:53:14.040Z,3.42
2019-03-04T16:55:43.318Z,4.97
2019-03-04T16:58:12.777Z,7.58
2019-03-04T17:00:42.686Z,6.90
2019-03-04T17:03:12.284Z,9.20
2019-03-04T17:05:42.188Z,7.60
2019-03-04T17:08:12.172Z,5.35
2019-03-04T17:10:41.418Z,7.75
2019-03-04T17:13:10.692Z,8.68
2019-03-04T17:15:39.909Z,10.30
2019-03-04T17:18:09.192Z,8.98
2019-03-04T17:20:38.398Z,11.00
2019-03-04T17:23:08.345Z,9.78
2019-03-04T17:25:37.693Z,7.25
2019-03-04T17:28:06.996Z,6.50
2019-03-04T17:30:36.211Z,7.95
2019-03-04T17:33:05.656Z,7.03
2019-03-04T17:35:34.891Z,5.37
2019-03-04T17:38:04.113Z,9.88
2019-03-04T17:40:33.343Z,9.25
2019-03-04T17:43:02.585Z,9.15
2019-03-04T17:45:31.776Z,7.60
2019-03-04T17:48:00.994Z,9.65
2019-03-04T17:50:32.886Z,11.15
2019-03-04T17:53:03.104Z,8.85
2019-03-04T17:55:32.976Z,8.15
2019-03-04T17:58:02.230Z,10.53
2019-03-04T18:00:31.435Z,9.10
2019-03-04T18:03:00.687Z,12.07
2019-03-04T18:05:29.997Z,8.30
2019-03-04T18:07:59.242Z,12.80
2019-03-04T18:10:28.553Z,6.45
2019-03-04T18:12:57.963Z,7.87
2019-03-04T18:15:27.290Z,5.83
2019-03-04T18:17:56.516Z,8.60
2019-03-04T18:20:34.076Z,7.92
2019-03-04T18:22:56.761Z,11.12
2019-03-04T18:25:36.674Z,7.37
2019-03-04T18:28:09.887Z,11.55
2019-03-04T18:31:17.251Z,7.10
2019-03-04T18:34:24.739Z,9.78
2019-03-04T18:37:13.227Z,5.55
2019-03-04T18:40:05.781Z,6.05
2019-03-04T18:42:57.512Z,5.97
2019-03-04T18:46:13.903Z,7.70
2019-03-04T18:48:54.700Z,6.35
2019-03-04T18:51:24.115Z,8.85
2019-03-04T18:53:55.013Z,9.45
2019-03-04T18:56:24.448Z,5.22
2019-03-04T18:58:53.840Z,9.43
2019-03-04T19:01:23.132Z,7.65
2019-03-04T19:03:52.562Z,7.53
2019-03-04T19:06:21.946Z,6.87
2019-03-04T19:08:51.280Z,8.03
2019-03-04T19:11:20.813Z,5.58
2019-03-04T19:13:50.766Z,9.45
2019-03-04T19:16:20.047Z,7.12
2019-03-04T19:18:49.486Z,8.25
2019-03-04T19:21:18.763Z,9.00
2019-03-04T19:23:48.212Z,4.85
2019-03-04T19:26:17.598Z,8.65
2019-03-04T19:28:47.013Z,5.45
2019-03-04T19:31:16.327Z,8.68
2019-03-04T19:33:45.965Z,8.13
2019-03-04T19:36:15.362Z,9.83
2019-03-04T19:38:44.892Z,7.72
2019-03-04T19:41:14.195Z,6.55
2019-03-04T19:43:43.515Z,5.58
2019-03-04T19:46:12.723Z,7.65
2019-03-04T19:48:42.430Z,6.33
2019-03-04T19:51:13.731Z,7.05
2019-03-04T19:53:43.329Z,8.90
2019-03-04T19:56:12.665Z,9.30
2019-03-04T19:58:42.041Z,9.55
2019-03-04T20:01:12.388Z,7.97
2019-03-04T20:03:41.947Z,9.68
2019-03-04T20:06:11.442Z,6.00
2019-03-04T20:08:41.092Z,7.90
2019-03-04T20:11:10.474Z,10.20
2019-03-04T20:13:39.729Z,6.65
2019-03-04T20:16:10.415Z,6.47
2019-03-04T20:18:40.074Z,5.53
2019-03-04T20:21:09.930Z,8.83
2019-03-04T20:23:39.669Z,5.58
2019-03-04T20:26:08.977Z,7.97
2019-03-04T20:28:38.807Z,7.28
2019-03-04T20:31:11.054Z,6.40
2019-03-04T20:33:40.368Z,10.98
2019-03-04T20:36:09.644Z,8.85
2019-03-04T20:38:42.480Z,8.30
2019-03-04T20:41:12.156Z,8.28
2019-03-04T20:43:41.727Z,8.98
2019-03-04T20:46:11.001Z,6.72
2019-03-04T20:48:40.421Z,6.05
2019-03-04T20:51:09.970Z,7.42
2019-03-04T20:53:39.435Z,7.25
2019-03-04T20:56:09.097Z,8.73
2019-03-04T20:58:38.836Z,5.80
2019-03-04T21:01:08.931Z,8.23
2019-03-04T21:03:38.769Z,10.88
2019-03-04T21:06:08.792Z,10.80
2019-03-04T21:08:38.360Z,6.58
2019-03-04T21:11:07.751Z,6.47
2019-03-04T21:13:37.186Z,5.87
2019-03-04T21:16:06.644Z,4.20
2019-03-04T21:18:35.925Z,8.55
2019-03-04T21:21:05.810Z,6.12
2019-03-04T21:23:35.034Z,7.47
2019-03-04T21:26:17.230Z,6.20
2019-03-04T21:29:13.572Z,4.62
2019-03-04T21:31:50.438Z,6.92
2019-03-04T21:34:59.257Z,3.62
2019-03-04T21:37:33.380Z,5.28
2019-03-04T21:40:25.538Z,5.37
2019-03-04T21:42:58.537Z,5.08
2019-03-04T21:46:19.715Z,6.00
2019-03-04T21:48:55.792Z,8.43
2019-03-04T21:52:03.170Z,9.50
2019-03-04T21:54:32.424Z,7.03
2019-03-04T21:57:21.611Z,7.90
2019-03-04T21:59:50.861Z,7.53
2019-03-04T22:02:55.757Z,8.35
2019-03-04T22:05:25.106Z,8.80
2019-03-04T22:07:54.399Z,4.97
2019-03-04T22:10:23.767Z,5.92
2019-03-04T22:12:52.997Z,7.80
2019-03-04T22:15:22.199Z,8.20
2019-03-04T22:17:51.423Z,7.30
2019-03-04T22:20:20.661Z,7.30
2019-03-04T22:22:50.052Z,10.28
2019-03-04T22:25:19.230Z,7.97
2019-03-04T22:27:48.430Z,7.75
2019-03-04T22:30:17.801Z,7.25
2019-03-04T22:32:47.126Z,9.08
2019-03-04T22:35:17.337Z,6.92
2019-03-04T22:37:46.891Z,11.63
2019-03-04T22:40:17.574Z,7.55
2019-03-04T22:42:46.767Z,10.48
2019-03-04T22:45:17.510Z,7.37
2019-03-04T22:47:47.122Z,8.58
2019-03-04T22:50:17.011Z,9.08
2019-03-04T22:52:46.206Z,7.95
2019-03-04T22:55:23.801Z,7.33
2019-03-04T22:57:53.001Z,10.13
2019-03-04T23:01:36.018Z,7.50
2019-03-04T23:04:40.431Z,9.15
2019-03-04T23:07:11.903Z,7.28
2019-03-04T23:10:01.532Z,8.20
2019-03-04T23:12:58.313Z,9.53
2019-03-04T23:15:27.521Z,9.78
2019-03-04T23:17:56.699Z,7.95
2019-03-04T23:20:25.887Z,11.28
2019-03-04T23:22:55.161Z,10.18
2019-03-04T23:25:24.403Z,6.95
2019-03-04T23:27:53.603Z,6.10
2019-03-04T23:30:22.801Z,10.00
2019-03-04T23:32:52.017Z,12.65
2019-03-04T23:35:21.187Z,7.90
2019-03-04T23:37:50.413Z,14.03
2019-03-04T23:40:19.635Z,8.28
2019-03-04T23:42:48.814Z,10.55
2019-03-04T23:45:18.027Z,7.08
2019-03-04T23:47:47.196Z,10.25
2019-03-04T23:50:18.642Z,9.45
2019-03-04T23:52:47.868Z,9.58
2019-03-04T23:55:17.119Z,8.43
2019-03-04T23:57:46.434Z,8.50
